createdAt,value
2018-05-18T00:00:16.083Z,12.50
2018-05-18T00:02:44.907Z,12.50
2018-05-18T00:05:13.994Z,12.50
2018-05-18T00:07:42.819Z,12.40
2018-05-18T00:10:11.890Z,12.40
2018-05-18T00:12:41.525Z,12.40
2018-05-18T00:15:10.706Z,12.30
2018-05-18T00:17:40.563Z,12.30
2018-05-18T00:20:09.555Z,12.30
2018-05-18T00:22:38.381Z,12.30
2018-05-18T00:25:07.558Z,12.20
2018-05-18T00:27:36.415Z,12.20
2018-05-18T00:30:05.570Z,12.20
2018-05-18T00:32:34.783Z,12.10
2018-05-18T00:35:03.630Z,12.10
2018-05-18T00:37:32.818Z,12.00
2018-05-18T00:40:02.504Z,12.00
2018-05-18T00:42:32.135Z,11.90
2018-05-18T00:45:01.717Z,11.90
2018-05-18T00:47:30.542Z,11.80
2018-05-18T00:50:00.168Z,11.70
2018-05-18T00:52:28.993Z,11.70
2018-05-18T00:54:57.834Z,11.70
2018-05-18T00:57:27.028Z,11.60
2018-05-18T00:59:55.970Z,11.50
2018-05-18T01:02:24.822Z,11.50
2018-05-18T01:04:54.078Z,11.40
2018-05-18T01:07:22.901Z,11.40
2018-05-18T01:09:51.982Z,11.30
2018-05-18T01:12:20.888Z,11.30
2018-05-18T01:14:50.227Z,11.30
2018-05-18T01:17:19.415Z,11.20
2018-05-18T01:19:48.258Z,11.20
2018-05-18T01:22:17.091Z,11.10
2018-05-18T01:24:45.933Z,11.10
2018-05-18T01:27:14.878Z,11.00
2018-05-18T01:29:43.982Z,11.00
2018-05-18T01:32:12.802Z,10.90
2018-05-18T01:34:42.421Z,10.80
2018-05-18T01:37:12.022Z,10.80
2018-05-18T01:39:41.070Z,10.80
2018-05-18T01:42:09.942Z,10.70
2018-05-18T01:44:38.910Z,10.70
2018-05-18T01:47:08.527Z,10.60
2018-05-18T01:49:38.235Z,10.60
2018-05-18T01:52:07.814Z,10.60
2018-05-18T01:54:37.010Z,10.60
2018-05-18T01:57:05.903Z,10.60
2018-05-18T01:59:34.756Z,10.60
2018-05-18T02:02:04.113Z,10.50
2018-05-18T02:04:32.950Z,10.50
2018-05-18T02:07:02.150Z,10.50
2018-05-18T02:09:32.129Z,10.40
2018-05-18T02:12:01.429Z,10.40
2018-05-18T02:14:30.278Z,10.40
2018-05-18T02:16:59.103Z,10.40
2018-05-18T02:19:27.930Z,10.40
2018-05-18T02:21:56.747Z,10.40
2018-05-18T02:24:26.023Z,10.40
2018-05-18T02:26:56.042Z,10.40
2018-05-18T02:29:24.907Z,10.40
2018-05-18T02:31:53.722Z,10.30
2018-05-18T02:34:22.550Z,10.30
2018-05-18T02:36:51.501Z,10.30
2018-05-18T02:39:20.290Z,10.30
2018-05-18T02:41:49.478Z,10.30
2018-05-18T02:44:18.323Z,10.30
2018-05-18T02:46:47.623Z,10.20
2018-05-18T02:49:18.025Z,10.20
2018-05-18T02:51:47.326Z,10.20
2018-05-18T02:54:16.138Z,10.20
2018-05-18T02:56:45.394Z,10.20
2018-05-18T02:59:14.240Z,10.20
2018-05-18T03:01:43.054Z,10.20
2018-05-18T03:04:12.326Z,10.20
2018-05-18T03:06:41.154Z,10.10
2018-05-18T03:09:10.758Z,10.10
2018-05-18T03:11:40.396Z,10.10
2018-05-18T03:14:09.218Z,10.10
2018-05-18T03:16:38.039Z,10.10
2018-05-18T03:19:07.243Z,10.10
2018-05-18T03:21:36.062Z,10.10
2018-05-18T03:24:05.691Z,10.10
2018-05-18T03:26:34.541Z,10.10
2018-05-18T03:29:03.792Z,10.10
2018-05-18T03:31:32.643Z,10.10
2018-05-18T03:34:01.510Z,10.10
2018-05-18T03:36:30.346Z,10.10
2018-05-18T03:39:00.383Z,10.10
2018-05-18T03:41:29.850Z,10.10
2018-05-18T03:43:58.666Z,10.10
2018-05-18T03:46:28.255Z,10.20
2018-05-18T03:48:57.104Z,10.10
2018-05-18T03:51:25.946Z,10.20
2018-05-18T03:53:55.758Z,10.20
2018-05-18T03:56:25.086Z,10.20
2018-05-18T03:58:54.700Z,10.20
2018-05-18T04:01:36.266Z,10.20
2018-05-18T04:04:17.048Z,10.20
2018-05-18T04:06:58.266Z,10.30
2018-05-18T04:09:27.090Z,10.30
2018-05-18T04:11:55.922Z,10.30
2018-05-18T04:14:25.576Z,10.40
2018-05-18T04:16:54.413Z,10.40
2018-05-18T04:19:24.038Z,10.50
2018-05-18T04:21:53.649Z,10.50
2018-05-18T04:24:23.262Z,10.60
2018-05-18T04:26:52.845Z,10.60
2018-05-18T04:29:22.836Z,10.60
2018-05-18T04:31:52.052Z,10.60
2018-05-18T04:34:21.284Z,10.70
2018-05-18T04:36:51.007Z,10.80
2018-05-18T04:39:20.610Z,10.80
2018-05-18T04:41:50.284Z,10.90
2018-05-18T04:44:19.100Z,10.90
2018-05-18T04:46:47.955Z,10.90
2018-05-18T04:49:16.842Z,11.00
2018-05-18T04:51:45.803Z,11.00
2018-05-18T04:54:15.426Z,11.10
2018-05-18T04:56:45.450Z,11.10
2018-05-18T04:59:14.541Z,11.10
2018-05-18T05:01:43.770Z,11.20
2018-05-18T05:04:12.613Z,11.20
2018-05-18T05:06:41.505Z,11.30
2018-05-18T05:09:10.578Z,11.40
2018-05-18T05:11:39.418Z,11.40
2018-05-18T05:14:09.003Z,11.50
2018-05-18T05:16:37.882Z,11.50
2018-05-18T05:19:06.787Z,11.50
2018-05-18T05:21:35.622Z,11.70
2018-05-18T05:24:05.297Z,11.90
2018-05-18T05:26:34.218Z,11.80
2018-05-18T05:29:03.099Z,12.00
2018-05-18T05:31:32.062Z,12.10
2018-05-18T05:34:01.025Z,12.10
2018-05-18T05:36:29.992Z,12.20
2018-05-18T05:38:59.555Z,12.30
2018-05-18T05:41:29.064Z,12.30
2018-05-18T05:43:57.990Z,12.40
2018-05-18T05:46:26.947Z,12.40
2018-05-18T05:48:56.646Z,12.50
2018-05-18T05:51:25.683Z,12.50
2018-05-18T05:53:54.687Z,12.60
2018-05-18T05:56:23.727Z,12.70
2018-05-18T05:58:53.431Z,12.80
2018-05-18T06:01:23.305Z,12.80
2018-05-18T06:03:52.304Z,12.80
2018-05-18T06:06:22.082Z,12.90
2018-05-18T06:08:51.531Z,12.90
2018-05-18T06:11:20.449Z,13.00
2018-05-18T06:13:49.349Z,13.00
2018-05-18T06:16:18.198Z,13.10
2018-05-18T06:18:47.039Z,13.20
2018-05-18T06:21:15.898Z,13.30
2018-05-18T06:23:44.786Z,13.30
2018-05-18T06:26:13.683Z,13.40
2018-05-18T06:28:42.545Z,13.30
2018-05-18T06:31:11.463Z,13.30
2018-05-18T06:33:40.370Z,13.30
2018-05-18T06:36:09.179Z,13.20
2018-05-18T06:38:38.947Z,13.20
2018-05-18T06:41:08.541Z,13.30
2018-05-18T06:43:37.379Z,13.30
2018-05-18T06:46:06.669Z,13.40
2018-05-18T06:48:36.748Z,13.60
2018-05-18T06:51:05.642Z,13.60
2018-05-18T06:53:34.502Z,13.70
2018-05-18T06:56:03.451Z,13.80
2018-05-18T06:58:32.600Z,14.00
2018-05-18T07:01:02.795Z,14.10
2018-05-18T07:03:31.704Z,14.20
2018-05-18T07:06:00.554Z,14.30
2018-05-18T07:08:29.398Z,14.30
2018-05-18T07:10:58.295Z,14.50
2018-05-18T07:13:27.183Z,14.60
2018-05-18T07:15:56.030Z,14.70
2018-05-18T07:18:24.901Z,14.80
2018-05-18T07:20:54.774Z,15.00
2018-05-18T07:23:24.434Z,15.10
2018-05-18T07:25:53.294Z,15.10
2018-05-18T07:28:22.143Z,15.20
2018-05-18T07:30:51.029Z,15.30
2018-05-18T07:33:20.013Z,15.40
2018-05-18T07:35:48.866Z,15.50
2018-05-18T07:38:17.749Z,15.60
2018-05-18T07:40:46.606Z,15.70
2018-05-18T07:43:16.729Z,15.70
2018-05-18T07:45:45.633Z,15.70
2018-05-18T07:48:14.674Z,15.80
2018-05-18T07:50:43.786Z,15.90
2018-05-18T07:53:12.650Z,15.90
2018-05-18T07:55:42.355Z,16.10
2018-05-18T07:58:12.503Z,16.20
2018-05-18T08:00:41.421Z,16.20
2018-05-18T08:03:10.346Z,16.30
2018-05-18T08:05:39.390Z,16.40
2018-05-18T08:08:08.371Z,16.50
2018-05-18T08:10:38.529Z,16.70
2018-05-18T08:13:07.769Z,16.70
2018-05-18T08:15:36.757Z,16.80
2018-05-18T08:18:05.838Z,16.80
2018-05-18T08:20:34.864Z,16.90
2018-05-18T08:23:04.010Z,17.00
2018-05-18T08:25:33.112Z,17.10
2018-05-18T08:28:02.156Z,17.20
2018-05-18T08:30:43.783Z,17.20
2018-05-18T08:33:12.774Z,17.30
2018-05-18T08:35:42.466Z,17.40
2018-05-18T08:38:11.586Z,17.40
2018-05-18T08:40:41.313Z,17.60
2018-05-18T08:43:10.236Z,17.60
2018-05-18T08:45:39.623Z,17.70
2018-05-18T08:48:08.735Z,17.80
2018-05-18T08:50:37.673Z,17.90
2018-05-18T08:53:06.650Z,18.00
2018-05-18T08:55:35.673Z,18.10
2018-05-18T08:58:04.646Z,18.20
2018-05-18T09:00:33.659Z,18.30
2018-05-18T09:03:02.721Z,18.40
2018-05-18T09:05:31.786Z,18.40
2018-05-18T09:08:00.813Z,18.50
2018-05-18T09:10:29.844Z,18.60
2018-05-18T09:12:59.637Z,18.80
2018-05-18T09:15:28.607Z,18.80
2018-05-18T09:17:57.602Z,18.90
2018-05-18T09:20:26.869Z,19.00
2018-05-18T09:22:56.096Z,19.10
2018-05-18T09:25:25.840Z,19.20
2018-05-18T09:27:54.952Z,19.20
2018-05-18T09:30:23.959Z,19.20
2018-05-18T09:32:53.941Z,19.20
2018-05-18T09:35:22.957Z,19.20
2018-05-18T09:37:51.938Z,19.20
2018-05-18T09:40:21.325Z,19.30
2018-05-18T09:42:50.770Z,19.40
2018-05-18T09:45:20.525Z,19.70
2018-05-18T09:47:51.171Z,19.90
2018-05-18T09:50:20.130Z,19.90
2018-05-18T09:52:49.311Z,19.90
2018-05-18T09:55:19.423Z,20.00
2018-05-18T09:57:48.363Z,19.90
2018-05-18T10:00:18.136Z,20.00
2018-05-18T10:02:48.922Z,20.10
2018-05-18T10:05:19.367Z,20.20
2018-05-18T10:07:49.411Z,20.30
2018-05-18T10:10:18.613Z,20.30
2018-05-18T10:12:48.449Z,20.40
2018-05-18T10:15:17.678Z,20.40
2018-05-18T10:17:47.060Z,20.50
2018-05-18T10:20:16.259Z,20.50
2018-05-18T10:22:45.574Z,20.60
2018-05-18T10:25:15.073Z,20.60
2018-05-18T10:27:44.454Z,20.70
2018-05-18T10:30:14.311Z,20.80
2018-05-18T10:32:43.933Z,20.80
2018-05-18T10:35:13.085Z,20.90
2018-05-18T10:37:43.033Z,21.20
2018-05-18T10:40:13.850Z,21.20
2018-05-18T10:42:43.069Z,21.30
2018-05-18T10:45:12.411Z,21.40
2018-05-18T10:47:41.683Z,21.40
2018-05-18T10:50:10.759Z,21.50
2018-05-18T10:52:41.676Z,21.60
2018-05-18T10:55:11.009Z,21.60
2018-05-18T10:57:41.040Z,21.90
2018-05-18T11:00:10.456Z,21.90
2018-05-18T11:02:41.274Z,22.00
2018-05-18T11:05:11.422Z,22.10
2018-05-18T11:07:41.609Z,22.20
2018-05-18T11:10:11.432Z,22.40
2018-05-18T11:12:40.782Z,22.40
2018-05-18T11:15:10.064Z,22.50
2018-05-18T11:17:39.928Z,22.70
2018-05-18T11:20:08.980Z,22.80
2018-05-18T11:22:40.565Z,22.80
2018-05-18T11:25:10.631Z,23.10
2018-05-18T11:27:40.632Z,23.20
2018-05-18T11:30:09.965Z,23.10
2018-05-18T11:32:39.769Z,23.20
2018-05-18T11:35:09.802Z,23.10
2018-05-18T11:37:39.220Z,23.10
2018-05-18T11:40:09.591Z,23.20
2018-05-18T11:42:38.655Z,23.20
2018-05-18T11:45:07.858Z,23.20
2018-05-18T11:47:37.092Z,23.30
2018-05-18T11:50:06.461Z,23.30
2018-05-18T11:52:35.420Z,23.30
2018-05-18T11:55:06.398Z,23.40
2018-05-18T11:57:35.384Z,23.40
2018-05-18T12:00:04.810Z,23.50
2018-05-18T12:02:33.804Z,23.50
2018-05-18T12:05:04.404Z,23.50
2018-05-18T12:07:34.923Z,23.60
2018-05-18T12:10:05.073Z,23.70
2018-05-18T12:12:34.625Z,23.70
2018-05-18T12:15:04.619Z,23.70
2018-05-18T12:17:34.052Z,23.70
2018-05-18T12:20:03.446Z,23.80
2018-05-18T12:22:32.643Z,24.00
2018-05-18T12:25:01.656Z,24.00
2018-05-18T12:27:30.579Z,24.10
2018-05-18T12:29:59.988Z,24.30
2018-05-18T12:32:29.775Z,24.60
2018-05-18T12:34:59.887Z,24.60
2018-05-18T12:37:29.975Z,24.60
2018-05-18T12:39:59.952Z,24.70
2018-05-18T12:42:31.505Z,24.70
2018-05-18T12:45:01.377Z,24.70
2018-05-18T12:47:30.441Z,24.80
2018-05-18T12:49:59.639Z,24.80
2018-05-18T12:52:29.367Z,24.80
2018-05-18T12:54:58.416Z,24.80
2018-05-18T12:57:27.799Z,24.70
2018-05-18T12:59:57.601Z,24.90
2018-05-18T13:02:27.713Z,25.10
2018-05-18T13:04:57.101Z,25.00
2018-05-18T13:07:26.217Z,25.10
2018-05-18T13:09:55.286Z,25.40
2018-05-18T13:12:24.239Z,25.50
2018-05-18T13:14:53.615Z,25.60
2018-05-18T13:17:22.980Z,25.80
2018-05-18T13:19:52.488Z,25.90
2018-05-18T13:22:21.519Z,25.90
2018-05-18T13:24:50.867Z,25.80
2018-05-18T13:27:20.598Z,25.50
2018-05-18T13:29:49.743Z,25.50
2018-05-18T13:32:18.781Z,25.50
2018-05-18T13:34:48.189Z,25.50
2018-05-18T13:37:18.505Z,25.80
2018-05-18T13:39:49.107Z,26.00
2018-05-18T13:42:18.141Z,25.90
2018-05-18T13:44:47.132Z,26.10
2018-05-18T13:47:17.150Z,26.30
2018-05-18T13:49:45.990Z,26.30
2018-05-18T13:52:14.952Z,26.30
2018-05-18T13:54:44.779Z,26.40
2018-05-18T13:57:13.695Z,26.40
2018-05-18T13:59:42.566Z,26.40
2018-05-18T14:02:11.422Z,26.50
2018-05-18T14:04:41.095Z,26.60
2018-05-18T14:07:10.018Z,26.60
2018-05-18T14:09:39.300Z,26.60
2018-05-18T14:12:08.182Z,26.70
2018-05-18T14:14:38.285Z,26.90
2018-05-18T14:17:07.931Z,27.00
2018-05-18T14:19:36.858Z,27.00
2018-05-18T14:22:05.717Z,27.10
2018-05-18T14:24:34.591Z,27.20
2018-05-18T14:27:04.253Z,27.30
2018-05-18T14:29:33.115Z,27.20
2018-05-18T14:32:02.083Z,27.10
2018-05-18T14:34:31.809Z,27.10
2018-05-18T14:37:00.670Z,27.10
2018-05-18T14:39:30.491Z,27.00
2018-05-18T14:41:59.363Z,26.90
2018-05-18T14:44:28.278Z,26.80
2018-05-18T14:46:57.263Z,26.30
2018-05-18T14:49:26.186Z,25.90
2018-05-18T14:51:56.144Z,25.50
2018-05-18T14:54:25.006Z,25.50
2018-05-18T14:56:54.538Z,25.50
2018-05-18T14:59:23.499Z,25.50
2018-05-18T15:01:52.794Z,25.60
2018-05-18T15:04:21.813Z,25.70
2018-05-18T15:06:51.491Z,25.80
2018-05-18T15:09:20.444Z,25.80
2018-05-18T15:11:50.239Z,25.80
2018-05-18T15:14:19.955Z,25.70
2018-05-18T15:16:49.685Z,25.60
2018-05-18T15:19:19.965Z,25.70
2018-05-18T15:21:49.638Z,25.80
2018-05-18T15:24:18.519Z,25.80
2018-05-18T15:26:47.426Z,25.80
2018-05-18T15:29:16.386Z,25.70
2018-05-18T15:31:45.550Z,25.80
2018-05-18T15:34:15.203Z,25.80
2018-05-18T15:36:44.583Z,25.80
2018-05-18T15:39:14.042Z,25.60
2018-05-18T15:41:43.031Z,25.50
2018-05-18T15:44:12.720Z,24.90
2018-05-18T15:46:41.845Z,24.80
2018-05-18T15:49:11.488Z,24.50
2018-05-18T15:51:40.367Z,24.50
2018-05-18T15:54:09.655Z,24.60
2018-05-18T15:56:40.327Z,24.70
2018-05-18T15:59:09.214Z,24.70
2018-05-18T16:01:38.135Z,24.60
2018-05-18T16:04:07.437Z,24.40
2018-05-18T16:06:36.661Z,24.30
2018-05-18T16:09:05.987Z,24.40
2018-05-18T16:11:35.625Z,24.60
2018-05-18T16:14:04.646Z,24.60
2018-05-18T16:16:33.498Z,24.70
2018-05-18T16:19:02.449Z,24.70
2018-05-18T16:21:31.338Z,24.70
2018-05-18T16:24:00.198Z,24.70
2018-05-18T16:26:29.078Z,24.70
2018-05-18T16:28:58.688Z,24.80
2018-05-18T16:31:27.790Z,24.80
2018-05-18T16:33:57.451Z,24.80
2018-05-18T16:36:26.348Z,24.80
2018-05-18T16:38:55.230Z,24.70
2018-05-18T16:41:24.087Z,24.70
2018-05-18T16:43:52.999Z,24.60
2018-05-18T16:46:21.898Z,24.50
2018-05-18T16:48:50.859Z,24.30
2018-05-18T16:51:20.536Z,24.10
2018-05-18T16:53:50.593Z,24.20
2018-05-18T16:56:20.283Z,24.20
2018-05-18T16:58:49.698Z,24.10
2018-05-18T17:01:19.325Z,24.20
2018-05-18T17:03:48.619Z,24.20
2018-05-18T17:06:17.471Z,24.20
2018-05-18T17:08:46.341Z,24.30
2018-05-18T17:11:15.223Z,24.30
2018-05-18T17:13:45.361Z,24.30
2018-05-18T17:16:14.274Z,24.30
2018-05-18T17:18:43.209Z,24.20
2018-05-18T17:21:12.092Z,24.20
2018-05-18T17:23:41.973Z,24.00
2018-05-18T17:26:10.871Z,24.00
2018-05-18T17:28:40.070Z,23.90
2018-05-18T17:31:08.966Z,23.70
2018-05-18T17:33:37.862Z,23.60
2018-05-18T17:36:06.780Z,23.50
2018-05-18T17:38:36.418Z,23.30
2018-05-18T17:41:05.830Z,23.20
2018-05-18T17:43:34.706Z,23.20
2018-05-18T17:46:03.673Z,23.10
2018-05-18T17:48:32.526Z,23.00
2018-05-18T17:51:02.244Z,22.90
2018-05-18T17:53:31.927Z,22.80
2018-05-18T17:56:01.163Z,22.70
2018-05-18T17:58:30.967Z,22.60
2018-05-18T18:01:00.688Z,22.50
2018-05-18T18:03:30.308Z,22.50
2018-05-18T18:06:00.210Z,22.40
2018-05-18T18:08:29.889Z,22.30
2018-05-18T18:10:58.938Z,22.20
2018-05-18T18:13:28.723Z,22.10
2018-05-18T18:15:58.188Z,22.10
2018-05-18T18:18:27.215Z,22.00
2018-05-18T18:20:56.627Z,21.90
2018-05-18T18:23:25.629Z,21.80
2018-05-18T18:25:54.696Z,21.60
2018-05-18T18:28:23.616Z,21.40
2018-05-18T18:30:52.593Z,21.20
2018-05-18T18:33:21.486Z,21.10
2018-05-18T18:35:50.426Z,20.90
2018-05-18T18:38:19.401Z,20.80
2018-05-18T18:40:48.341Z,20.70
2018-05-18T18:43:17.291Z,20.50
2018-05-18T18:45:46.740Z,20.40
2018-05-18T18:48:15.680Z,20.20
2018-05-18T18:50:44.611Z,20.00
2018-05-18T18:53:13.536Z,19.90
2018-05-18T18:55:43.166Z,19.60
2018-05-18T18:58:12.170Z,19.60
2018-05-18T19:00:41.096Z,19.40
2018-05-18T19:03:10.315Z,19.20
2018-05-18T19:05:39.183Z,19.00
2018-05-18T19:08:08.503Z,18.70
2018-05-18T19:10:37.386Z,18.60
2018-05-18T19:13:06.218Z,18.40
2018-05-18T19:15:35.900Z,18.10
2018-05-18T19:18:04.946Z,18.10
2018-05-18T19:20:33.831Z,17.90
2018-05-18T19:23:03.664Z,17.70
2018-05-18T19:25:32.708Z,17.70
2018-05-18T19:28:02.315Z,17.50
2018-05-18T19:30:31.285Z,17.40
2018-05-18T19:33:00.555Z,17.30
2018-05-18T19:35:30.343Z,17.00
2018-05-18T19:38:01.392Z,16.90
2018-05-18T19:40:30.275Z,16.80
2018-05-18T19:42:59.545Z,16.70
2018-05-18T19:45:29.277Z,16.50
2018-05-18T19:47:58.233Z,16.50
2018-05-18T19:50:27.117Z,16.40
2018-05-18T19:52:56.750Z,16.10
2018-05-18T19:55:25.681Z,16.10
2018-05-18T19:57:54.523Z,16.00
2018-05-18T20:00:24.245Z,15.80
2018-05-18T20:02:53.110Z,15.70
2018-05-18T20:05:22.066Z,15.70
2018-05-18T20:07:50.961Z,15.50
2018-05-18T20:10:19.847Z,15.40
2018-05-18T20:12:48.711Z,15.40
2018-05-18T20:15:18.429Z,15.10
2018-05-18T20:17:48.047Z,15.00
2018-05-18T20:20:16.993Z,15.00
2018-05-18T20:22:46.556Z,14.90
2018-05-18T20:25:15.452Z,14.80
2018-05-18T20:27:44.335Z,14.70
2018-05-18T20:30:13.996Z,14.50
2018-05-18T20:32:43.258Z,14.40
2018-05-18T20:35:12.484Z,14.30
2018-05-18T20:37:41.448Z,14.20
2018-05-18T20:40:11.058Z,14.00
2018-05-18T20:42:40.691Z,13.90
2018-05-18T20:45:09.644Z,13.80
2018-05-18T20:47:38.522Z,13.80
2018-05-18T20:50:07.423Z,13.60
2018-05-18T20:52:36.333Z,13.50
2018-05-18T20:55:05.644Z,13.50
2018-05-18T20:57:34.575Z,13.40
2018-05-18T21:00:03.516Z,13.30
2018-05-18T21:02:32.372Z,13.20
2018-05-18T21:05:01.604Z,13.10
2018-05-18T21:07:30.504Z,13.10
2018-05-18T21:09:59.439Z,13.00
2018-05-18T21:12:28.328Z,12.90
2018-05-18T21:14:58.088Z,12.70
2018-05-18T21:17:27.050Z,12.70
2018-05-18T21:19:56.038Z,12.60
2018-05-18T21:22:25.720Z,12.50
2018-05-18T21:24:55.665Z,12.40
2018-05-18T21:27:24.552Z,12.30
2018-05-18T21:29:53.407Z,12.20
2018-05-18T21:32:22.319Z,12.20
2018-05-18T21:34:51.460Z,12.10
2018-05-18T21:37:21.097Z,11.90
2018-05-18T21:39:50.037Z,11.90
2018-05-18T21:42:19.335Z,11.90
2018-05-18T21:44:48.561Z,11.80
2018-05-18T21:47:18.190Z,11.70
2018-05-18T21:49:47.037Z,11.70
2018-05-18T21:52:15.918Z,11.60
2018-05-18T21:54:44.861Z,11.60
2018-05-18T21:57:13.694Z,11.50
2018-05-18T21:59:42.530Z,11.40
2018-05-18T22:02:11.473Z,11.30
2018-05-18T22:04:40.313Z,11.20
2018-05-18T22:07:09.145Z,11.20
2018-05-18T22:09:39.063Z,11.00
2018-05-18T22:12:08.234Z,11.00
2018-05-18T22:14:37.091Z,10.90
2018-05-18T22:17:05.951Z,10.80
2018-05-18T22:19:35.577Z,10.70
2018-05-18T22:22:04.398Z,10.70
2018-05-18T22:24:33.278Z,10.60
2018-05-18T22:27:02.209Z,10.50
2018-05-18T22:29:31.432Z,10.50
2018-05-18T22:32:00.286Z,10.40
2018-05-18T22:34:29.169Z,10.30
2018-05-18T22:36:58.063Z,10.30
2018-05-18T22:39:26.928Z,10.20
2018-05-18T22:41:56.557Z,10.10
2018-05-18T22:44:25.390Z,10.00
2018-05-18T22:46:54.300Z,9.90
2018-05-18T22:49:23.126Z,9.80
2018-05-18T22:51:52.734Z,9.70
2018-05-18T22:54:22.385Z,9.60
2018-05-18T22:56:51.269Z,9.60
2018-05-18T22:59:20.259Z,9.60
2018-05-18T23:01:49.367Z,9.50
2018-05-18T23:04:19.369Z,9.30
2018-05-18T23:06:48.521Z,9.30
2018-05-18T23:09:17.516Z,9.30
2018-05-18T23:11:46.828Z,9.30
2018-05-18T23:14:15.864Z,9.20
2018-05-18T23:16:44.823Z,9.20
2018-05-18T23:19:13.781Z,9.20
2018-05-18T23:21:42.728Z,9.10
2018-05-18T23:24:12.463Z,9.00
2018-05-18T23:26:41.423Z,8.90
2018-05-18T23:29:11.536Z,8.80
2018-05-18T23:31:40.532Z,8.80
2018-05-18T23:34:10.480Z,8.70
2018-05-18T23:36:40.169Z,8.60
2018-05-18T23:39:09.894Z,8.60
2018-05-18T23:41:38.809Z,8.60
2018-05-18T23:44:08.568Z,8.40
2018-05-18T23:46:37.517Z,8.40
2018-05-18T23:49:07.246Z,8.30
2018-05-18T23:51:36.245Z,8.30
2018-05-18T23:54:05.665Z,8.30
2018-05-18T23:56:35.030Z,8.20
2018-05-18T23:59:03.988Z,8.20
